Time,TemperatureF,DewpointF,PressureIn,WindDirection,WindDirectionDegrees,WindSpeedMPH,WindSpeedGustMPH,Humidity,HourlyPrecipIn,Conditions,Clouds,dailyrainin,SolarRadiationWatts/m^2,SoftwareType,DateUTC
2013-08-14 00:04:00,67.3,63.9,29.75,North,-999,0.0,0.0,89,0.00,,,-99.99,0,WeatherLink 5.4,2013-08-14 04:04:00,
2013-08-14 00:18:00,66.6,63.3,29.74,North,-999,0.0,0.0,89,0.00,,,-99.99,0,WeatherLink 5.4,2013-08-14 04:18:00,
2013-08-14 00:24:00,66.6,63.3,29.74,North,-999,0.0,0.0,89,0.00,,,-99.99,0,WeatherLink 5.4,2013-08-14 04:24:00,
2013-08-14 00:29:00,66.6,63.3,29.74,North,-999,0.0,0.0,89,0.00,,,-99.99,0,WeatherLink 5.4,2013-08-14 04:29:00,
2013-08-14 00:34:00,66.6,63.3,29.74,North,-999,0.0,0.0,89,0.00,,,-99.99,0,WeatherLink 5.4,2013-08-14 04:34:00,
2013-08-14 00:43:00,66.4,63.1,29.74,North,-999,0.0,0.0,89,0.00,,,-99.99,0,WeatherLink 5.4,2013-08-14 04:43:00,
2013-08-14 00:49:00,66.4,63.1,29.74,North,-999,0.0,0.0,89,0.00,,,-99.99,0,WeatherLink 5.4,2013-08-14 04:49:00,
2013-08-14 00:54:00,66.1,63.1,29.73,North,-999,0.0,0.0,90,0.00,,,-99.99,0,WeatherLink 5.4,2013-08-14 04:54:00,
2013-08-14 00:59:00,66.1,63.1,29.73,North,-999,0.0,0.0,90,0.00,,,-99.99,0,WeatherLink 5.4,2013-08-14 04:59:00,
2013-08-14 01:03:00,66.1,63.1,29.73,North,-999,0.0,0.0,90,0.00,,,-99.99,0,WeatherLink 5.4,2013-08-14 05:03:00,
2013-08-14 01:08:00,66.0,63.0,29.74,North,-999,0.0,0.0,90,0.00,,,-99.99,0,WeatherLink 5.4,2013-08-14 05:08:00,
2013-08-14 01:14:00,66.0,63.0,29.74,North,-999,0.0,0.0,90,0.00,,,-99.99,0,WeatherLink 5.4,2013-08-14 05:14:00,
2013-08-14 01:19:00,66.0,63.0,29.74,North,-999,0.0,0.0,90,0.00,,,-99.99,0,WeatherLink 5.4,2013-08-14 05:19:00,
2013-08-14 01:24:00,65.6,62.9,29.73,North,-999,0.0,0.0,91,0.00,,,-99.99,0,WeatherLink 5.4,2013-08-14 05:24:00,
2013-08-14 01:34:00,65.6,62.9,29.73,North,-999,0.0,0.0,91,0.00,,,-99.99,0,WeatherLink 5.4,2013-08-14 05:34:00,
2013-08-14 01:38:00,65.3,62.6,29.74,North,-999,0.0,0.0,91,0.00,,,-99.99,0,WeatherLink 5.4,2013-08-14 05:38:00,
2013-08-14 01:44:00,65.3,62.6,29.74,North,-999,0.0,0.0,91,0.00,,,-99.99,0,WeatherLink 5.4,2013-08-14 05:44:00,
2013-08-14 01:49:00,65.3,62.6,29.74,North,-999,0.0,0.0,91,0.00,,,-99.99,0,WeatherLink 5.4,2013-08-14 05:49:00,
2013-08-14 01:53:00,65.2,62.5,29.73,North,-999,0.0,0.0,91,0.00,,,-99.99,0,WeatherLink 5.4,2013-08-14 05:53:00,
2013-08-14 01:59:00,65.2,62.5,29.73,North,-999,0.0,0.0,91,0.00,,,-99.99,0,WeatherLink 5.4,2013-08-14 05:59:00,
2013-08-14 02:04:00,64.8,62.4,29.73,North,-999,0.0,0.0,92,0.00,,,-99.99,0,WeatherLink 5.4,2013-08-14 06:04:00,
2013-08-14 02:09:00,64.8,62.4,29.73,North,-999,0.0,0.0,92,0.00,,,-99.99,0,WeatherLink 5.4,2013-08-14 06:09:00,
2013-08-14 02:13:00,64.8,62.4,29.73,North,-999,0.0,0.0,92,0.00,,,-99.99,0,WeatherLink 5.4,2013-08-14 06:13:00,
2013-08-14 02:19:00,64.8,62.4,29.73,North,-999,0.0,0.0,92,0.00,,,-99.99,0,WeatherLink 5.4,2013-08-14 06:19:00,
2013-08-14 02:24:00,64.7,62.3,29.73,North,-999,0.0,0.0,92,0.00,,,-99.99,0,WeatherLink 5.4,2013-08-14 06:24:00,
2013-08-14 02:28:00,64.7,62.3,29.73,North,-999,0.0,0.0,92,0.00,,,-99.99,0,WeatherLink 5.4,2013-08-14 06:28:00,
2013-08-14 02:34:00,64.7,62.3,29.73,North,-999,0.0,0.0,92,0.00,,,-99.99,0,WeatherLink 5.4,2013-08-14 06:34:00,
2013-08-14 02:39:00,64.5,62.1,29.73,North,-999,0.0,0.0,92,0.00,,,-99.99,0,WeatherLink 5.4,2013-08-14 06:39:00,
2013-08-14 02:43:00,64.5,62.1,29.73,North,-999,0.0,0.0,92,0.00,,,-99.99,0,WeatherLink 5.4,2013-08-14 06:43:00,
2013-08-14 02:49:00,64.5,62.1,29.73,North,-999,0.0,0.0,92,0.00,,,-99.99,0,WeatherLink 5.4,2013-08-14 06:49:00,
2013-08-14 02:54:00,64.7,62.6,29.73,North,-999,0.0,0.0,93,0.00,,,-99.99,0,WeatherLink 5.4,2013-08-14 06:54:00,
2013-08-14 02:59:00,64.7,62.6,29.73,North,-999,0.0,0.0,93,0.00,,,-99.99,0,WeatherLink 5.4,2013-08-14 06:59:00,
2013-08-14 03:04:00,64.7,62.6,29.73,North,-999,0.0,0.0,93,0.00,,,-99.99,0,WeatherLink 5.4,2013-08-14 07:04:00,
2013-08-14 03:09:00,64.8,62.7,29.72,North,-999,0.0,0.0,93,0.00,,,-99.99,0,WeatherLink 5.4,2013-08-14 07:09:00,
2013-08-14 03:14:00,64.8,62.7,29.72,North,-999,0.0,0.0,93,0.00,,,-99.99,0,WeatherLink 5.4,2013-08-14 07:14:00,
2013-08-14 03:18:00,64.8,62.7,29.72,North,-999,0.0,0.0,93,0.00,,,-99.99,0,WeatherLink 5.4,2013-08-14 07:18:00,
2013-08-14 03:24:00,65.0,63.2,29.73,North,-999,0.0,0.0,94,0.00,,,-99.99,0,WeatherLink 5.4,2013-08-14 07:24:00,
2013-08-14 03:29:00,65.0,63.2,29.73,North,-999,0.0,0.0,94,0.00,,,-99.99,0,WeatherLink 5.4,2013-08-14 07:29:00,
2013-08-14 03:34:00,65.0,63.2,29.73,North,-999,0.0,0.0,94,0.00,,,-99.99,0,WeatherLink 5.4,2013-08-14 07:34:00,
2013-08-14 03:38:00,65.0,63.2,29.72,North,-999,0.0,0.0,94,0.00,,,-99.99,0,WeatherLink 5.4,2013-08-14 07:38:00,
2013-08-14 03:44:00,65.0,63.2,29.72,North,-999,0.0,0.0,94,0.00,,,-99.99,0,WeatherLink 5.4,2013-08-14 07:44:00,
2013-08-14 03:49:00,65.2,63.4,29.73,North,-999,0.0,0.0,94,0.00,,,-99.99,0,WeatherLink 5.4,2013-08-14 07:49:00,
2013-08-14 03:54:00,65.2,63.4,29.73,North,-999,0.0,0.0,94,0.00,,,-99.99,0,WeatherLink 5.4,2013-08-14 07:54:00,
2013-08-14 03:59:00,65.2,63.4,29.73,North,-999,0.0,0.0,94,0.00,,,-99.99,0,WeatherLink 5.4,2013-08-14 07:59:00,
2013-08-14 04:03:00,65.2,63.4,29.73,North,-999,0.0,0.0,94,0.00,,,-99.99,0,WeatherLink 5.4,2013-08-14 08:03:00,
2013-08-14 04:08:00,65.2,63.4,29.72,North,-999,0.0,0.0,94,0.00,,,-99.99,0,WeatherLink 5.4,2013-08-14 08:08:00,
2013-08-14 04:14:00,65.2,63.4,29.72,North,-999,0.0,0.0,94,0.00,,,-99.99,0,WeatherLink 5.4,2013-08-14 08:14:00,
2013-08-14 04:19:00,65.2,63.4,29.72,North,-999,0.0,0.0,94,0.00,,,-99.99,0,WeatherLink 5.4,2013-08-14 08:19:00,
2013-08-14 04:23:00,65.0,63.2,29.72,North,-999,0.0,0.0,94,0.00,,,-99.99,0,WeatherLink 5.4,2013-08-14 08:23:00,
2013-08-14 04:29:00,65.0,63.2,29.72,North,-999,0.0,0.0,94,0.00,,,-99.99,0,WeatherLink 5.4,2013-08-14 08:29:00,
2013-08-14 04:34:00,65.0,63.2,29.72,North,-999,0.0,0.0,94,0.00,,,-99.99,0,WeatherLink 5.4,2013-08-14 08:34:00,
2013-08-14 04:44:00,64.7,62.9,29.72,North,-999,0.0,0.0,94,0.00,,,-99.99,0,WeatherLink 5.4,2013-08-14 08:44:00,
2013-08-14 04:49:00,64.7,62.9,29.72,North,-999,0.0,0.0,94,0.00,,,-99.99,0,WeatherLink 5.4,2013-08-14 08:49:00,
2013-08-14 04:53:00,64.3,62.5,29.73,North,-999,0.0,0.0,94,0.00,,,-99.99,0,WeatherLink 5.4,2013-08-14 08:53:00,
2013-08-14 04:59:00,64.3,62.5,29.73,North,-999,0.0,0.0,94,0.00,,,-99.99,0,WeatherLink 5.4,2013-08-14 08:59:00,
2013-08-14 05:04:00,64.3,62.5,29.73,North,-999,0.0,0.0,94,0.00,,,-99.99,0,WeatherLink 5.4,2013-08-14 09:04:00,
2013-08-14 05:09:00,64.0,62.2,29.72,North,-999,0.0,0.0,94,0.00,,,-99.99,0,WeatherLink 5.4,2013-08-14 09:09:00,
2013-08-14 05:14:00,64.0,62.2,29.72,North,-999,0.0,0.0,94,0.00,,,-99.99,0,WeatherLink 5.4,2013-08-14 09:14:00,
2013-08-14 05:18:00,64.0,62.2,29.72,North,-999,0.0,0.0,94,0.00,,,-99.99,0,WeatherLink 5.4,2013-08-14 09:18:00,
2013-08-14 05:24:00,63.5,61.7,29.73,North,-999,0.0,0.0,94,0.00,,,-99.99,0,WeatherLink 5.4,2013-08-14 09:24:00,
2013-08-14 05:28:00,63.5,61.7,29.73,North,-999,0.0,0.0,94,0.00,,,-99.99,0,WeatherLink 5.4,2013-08-14 09:28:00,
2013-08-14 05:34:00,63.5,61.7,29.73,North,-999,0.0,0.0,94,0.00,,,-99.99,0,WeatherLink 5.4,2013-08-14 09:34:00,
2013-08-14 05:39:00,63.1,61.0,29.74,North,-999,0.0,0.0,93,0.00,,,-99.99,0,WeatherLink 5.4,2013-08-14 09:39:00,
2013-08-14 05:43:00,63.1,61.0,29.74,North,-999,0.0,0.0,93,0.00,,,-99.99,0,WeatherLink 5.4,2013-08-14 09:43:00,
2013-08-14 05:49:00,63.1,61.0,29.74,North,-999,0.0,0.0,93,0.00,,,-99.99,0,WeatherLink 5.4,2013-08-14 09:49:00,
2013-08-14 05:54:00,62.7,60.6,29.74,North,-999,0.0,0.0,93,0.00,,,-99.99,0,WeatherLink 5.4,2013-08-14 09:54:00,
2013-08-14 05:59:00,62.7,60.6,29.74,North,-999,0.0,0.0,93,0.00,,,-99.99,0,WeatherLink 5.4,2013-08-14 09:59:00,
2013-08-14 06:03:00,62.7,60.6,29.74,North,-999,0.0,0.0,93,0.00,,,-99.99,0,WeatherLink 5.4,2013-08-14 10:03:00,
2013-08-14 06:08:00,62.1,60.1,29.75,North,-999,0.0,0.0,93,0.00,,,-99.99,0,WeatherLink 5.4,2013-08-14 10:08:00,
2013-08-14 06:14:00,62.1,60.1,29.75,North,-999,0.0,0.0,93,0.00,,,-99.99,0,WeatherLink 5.4,2013-08-14 10:14:00,
2013-08-14 06:19:00,62.1,60.1,29.75,North,-999,0.0,0.0,93,0.00,,,-99.99,0,WeatherLink 5.4,2013-08-14 10:19:00,
2013-08-14 06:23:00,61.6,59.6,29.76,North,-999,0.0,0.0,93,0.00,,,-99.99,0,WeatherLink 5.4,2013-08-14 10:23:00,
2013-08-14 06:29:00,61.6,59.6,29.76,North,-999,0.0,0.0,93,0.00,,,-99.99,0,WeatherLink 5.4,2013-08-14 10:29:00,
2013-08-14 06:34:00,61.6,59.6,29.76,North,-999,0.0,0.0,93,0.00,,,-99.99,0,WeatherLink 5.4,2013-08-14 10:34:00,
2013-08-14 06:38:00,61.3,59.3,29.77,North,-999,0.0,0.0,93,0.00,,,-99.99,0,WeatherLink 5.4,2013-08-14 10:38:00,
2013-08-14 06:44:00,61.3,59.3,29.77,North,-999,0.0,0.0,93,0.00,,,-99.99,0,WeatherLink 5.4,2013-08-14 10:44:00,
2013-08-14 06:49:00,61.3,59.3,29.77,North,-999,0.0,0.0,93,0.00,,,-99.99,0,WeatherLink 5.4,2013-08-14 10:49:00,
2013-08-14 06:59:00,61.0,59.0,29.78,North,-999,0.0,0.0,93,0.00,,,-99.99,0,WeatherLink 5.4,2013-08-14 10:59:00,
2013-08-14 07:04:00,61.0,59.0,29.78,North,-999,0.0,0.0,93,0.00,,,-99.99,0,WeatherLink 5.4,2013-08-14 11:04:00,
2013-08-14 07:09:00,60.7,58.7,29.78,North,-999,0.0,0.0,93,0.00,,,-99.99,0,WeatherLink 5.4,2013-08-14 11:09:00,
2013-08-14 07:13:00,60.7,58.7,29.78,North,-999,0.0,0.0,93,0.00,,,-99.99,0,WeatherLink 5.4,2013-08-14 11:13:00,
2013-08-14 07:19:00,60.7,58.7,29.78,North,-999,0.0,0.0,93,0.00,,,-99.99,0,WeatherLink 5.4,2013-08-14 11:19:00,
2013-08-14 07:24:00,60.5,58.8,29.80,North,-999,0.0,0.0,94,0.00,,,-99.99,2,WeatherLink 5.4,2013-08-14 11:24:00,
2013-08-14 07:28:00,60.5,58.8,29.80,North,-999,0.0,0.0,94,0.00,,,-99.99,2,WeatherLink 5.4,2013-08-14 11:28:00,
2013-08-14 07:34:00,60.5,58.8,29.80,North,-999,0.0,0.0,94,0.00,,,-99.99,2,WeatherLink 5.4,2013-08-14 11:34:00,
2013-08-14 07:39:00,60.7,59.0,29.80,North,-999,0.0,0.0,94,0.00,,,-99.99,12,WeatherLink 5.4,2013-08-14 11:39:00,
2013-08-14 07:43:00,60.7,59.0,29.80,North,-999,0.0,0.0,94,0.00,,,-99.99,12,WeatherLink 5.4,2013-08-14 11:43:00,
2013-08-14 07:49:00,60.7,59.0,29.80,North,-999,0.0,0.0,94,0.00,,,-99.99,12,WeatherLink 5.4,2013-08-14 11:49:00,
2013-08-14 07:54:00,60.7,59.0,29.81,North,-999,0.0,0.0,94,0.00,,,-99.99,24,WeatherLink 5.4,2013-08-14 11:54:00,
2013-08-14 07:59:00,60.7,59.0,29.81,North,-999,0.0,0.0,94,0.00,,,-99.99,24,WeatherLink 5.4,2013-08-14 11:59:00,
2013-08-14 08:03:00,60.7,59.0,29.81,North,-999,0.0,0.0,94,0.00,,,-99.99,24,WeatherLink 5.4,2013-08-14 12:03:00,
2013-08-14 08:08:00,60.9,59.5,29.81,North,-999,0.0,0.0,95,0.00,,,-99.99,23,WeatherLink 5.4,2013-08-14 12:08:00,
2013-08-14 08:14:00,60.9,59.5,29.81,North,-999,0.0,0.0,95,0.00,,,-99.99,23,WeatherLink 5.4,2013-08-14 12:14:00,
2013-08-14 08:19:00,61.2,59.8,29.81,North,-999,0.0,0.0,95,0.00,,,-99.99,18,WeatherLink 5.4,2013-08-14 12:19:00,
2013-08-14 08:29:00,61.2,59.8,29.81,North,-999,0.0,0.0,95,0.00,,,-99.99,18,WeatherLink 5.4,2013-08-14 12:29:00,
2013-08-14 08:34:00,61.2,59.8,29.81,North,-999,0.0,0.0,95,0.00,,,-99.99,18,WeatherLink 5.4,2013-08-14 12:34:00,
2013-08-14 11:30:00,61.6,60.2,29.81,North,-999,0.0,0.0,95,0.00,,,-99.99,47,WeatherLink 5.4,2013-08-14 15:30:00,
2013-08-14 11:45:00,62.3,61.1,29.82,North,-999,0.0,0.0,96,0.00,,,-99.99,114,WeatherLink 5.4,2013-08-14 15:45:00,
2013-08-14 12:00:00,63.1,61.9,29.81,North,-999,0.0,0.0,96,0.00,,,-99.99,125,WeatherLink 5.4,2013-08-14 16:00:00,
2013-08-14 12:15:00,63.2,62.0,29.82,North,-999,0.0,0.0,96,0.00,,,-99.99,151,WeatherLink 5.4,2013-08-14 16:15:00,
2013-08-14 12:30:00,63.5,62.0,29.83,North,-999,0.0,0.0,95,0.00,,,-99.99,146,WeatherLink 5.4,2013-08-14 16:30:00,
2013-08-14 12:45:00,64.0,62.5,29.82,North,-999,0.0,0.0,95,0.00,,,-99.99,192,WeatherLink 5.4,2013-08-14 16:45:00,
2013-08-14 13:00:00,64.3,62.8,29.83,North,-999,0.0,0.0,95,0.00,,,-99.99,173,WeatherLink 5.4,2013-08-14 17:00:00,
2013-08-14 13:15:00,64.8,62.7,29.83,North,-999,0.0,0.0,93,0.00,,,-99.99,268,WeatherLink 5.4,2013-08-14 17:15:00,
2013-08-14 13:30:00,66.1,63.7,29.83,North,-999,0.0,0.0,92,0.00,,,-99.99,312,WeatherLink 5.4,2013-08-14 17:30:00,
2013-08-14 13:45:00,67.3,63.0,29.83,North,-999,0.0,0.0,86,0.00,,,-99.99,324,WeatherLink 5.4,2013-08-14 17:45:00,
2013-08-14 14:00:00,68.3,62.2,29.82,North,-999,0.0,0.0,81,0.00,,,-99.99,477,WeatherLink 5.4,2013-08-14 18:00:00,
2013-08-14 14:15:00,69.6,61.7,29.82,North,-999,0.0,0.0,76,0.00,,,-99.99,614,WeatherLink 5.4,2013-08-14 18:15:00,
2013-08-14 14:30:00,70.6,61.1,29.81,North,-999,0.0,0.0,72,0.00,,,-99.99,741,WeatherLink 5.4,2013-08-14 18:30:00,
2013-08-14 14:45:00,72.0,62.1,29.81,North,-999,0.0,0.0,71,0.00,,,-99.99,809,WeatherLink 5.4,2013-08-14 18:45:00,
2013-08-14 15:00:00,72.8,61.6,29.81,North,-999,0.0,0.0,68,0.00,,,-99.99,863,WeatherLink 5.4,2013-08-14 19:00:00,
2013-08-14 15:15:00,74.2,61.2,29.82,North,-999,0.0,0.0,64,0.00,,,-99.99,973,WeatherLink 5.4,2013-08-14 19:15:00,
2013-08-14 15:30:00,74.6,62.1,29.81,North,-999,0.0,0.0,65,0.00,,,-99.99,484,WeatherLink 5.4,2013-08-14 19:30:00,
2013-08-14 15:45:00,74.0,60.6,29.82,North,-999,0.0,0.0,63,0.00,,,-99.99,404,WeatherLink 5.4,2013-08-14 19:45:00,
2013-08-14 16:00:00,73.9,62.2,29.82,North,-999,0.0,0.0,67,0.00,,,-99.99,582,WeatherLink 5.4,2013-08-14 20:00:00,
2013-08-14 16:15:00,74.0,62.3,29.82,North,-999,0.0,0.0,67,0.00,,,-99.99,952,WeatherLink 5.4,2013-08-14 20:15:00,
2013-08-14 16:30:00,74.2,61.7,29.82,North,-999,0.0,0.0,65,0.00,,,-99.99,277,WeatherLink 5.4,2013-08-14 20:30:00,
2013-08-14 16:45:00,73.9,61.8,29.81,North,-999,0.0,0.0,66,0.00,,,-99.99,578,WeatherLink 5.4,2013-08-14 20:45:00,
2013-08-14 17:00:00,74.9,62.3,29.81,North,-999,0.0,0.0,65,0.00,,,-99.99,948,WeatherLink 5.4,2013-08-14 21:00:00,
2013-08-14 17:15:00,75.8,61.4,29.80,North,-999,0.0,0.0,61,0.00,,,-99.99,956,WeatherLink 5.4,2013-08-14 21:15:00,
2013-08-14 17:30:00,76.3,61.4,29.79,North,-999,0.0,0.0,60,0.00,,,-99.99,980,WeatherLink 5.4,2013-08-14 21:30:00,
2013-08-14 17:45:00,77.6,60.7,29.79,North,-999,0.0,0.0,56,0.00,,,-99.99,1035,WeatherLink 5.4,2013-08-14 21:45:00,
2013-08-14 18:00:00,77.4,63.4,29.80,North,-999,0.0,0.0,62,0.00,,,-99.99,621,WeatherLink 5.4,2013-08-14 22:00:00,
2013-08-14 18:15:00,77.7,62.2,29.79,North,-999,0.0,0.0,59,0.00,,,-99.99,996,WeatherLink 5.4,2013-08-14 22:15:00,
2013-08-14 18:30:00,77.9,60.9,29.79,North,-999,0.0,0.0,56,0.00,,,-99.99,955,WeatherLink 5.4,2013-08-14 22:30:00,
2013-08-14 18:45:00,77.7,65.4,29.79,North,-999,0.0,0.0,66,0.00,,,-99.99,930,WeatherLink 5.4,2013-08-14 22:45:00,
2013-08-14 19:00:00,77.0,65.2,29.78,North,-999,0.0,0.0,67,0.00,,,-99.99,790,WeatherLink 5.4,2013-08-14 23:00:00,
2013-08-14 19:15:00,76.0,63.8,29.79,North,-999,0.0,0.0,66,0.00,,,-99.99,432,WeatherLink 5.4,2013-08-14 23:15:00,
2013-08-14 19:30:00,74.4,64.0,29.79,North,-999,0.0,0.0,70,0.00,,,-99.99,220,WeatherLink 5.4,2013-08-14 23:30:00,
2013-08-14 19:45:00,73.0,63.4,29.80,North,-999,0.0,0.0,72,0.00,,,-99.99,221,WeatherLink 5.4,2013-08-14 23:45:00,
2013-08-14 20:00:00,72.5,63.4,29.80,North,-999,0.0,0.0,73,0.00,,,-99.99,236,WeatherLink 5.4,2013-08-15 00:00:00,
2013-08-14 20:15:00,72.0,63.6,29.82,North,-999,0.0,0.0,75,0.00,,,-99.99,183,WeatherLink 5.4,2013-08-15 00:15:00,
2013-08-14 20:30:00,71.5,63.9,29.81,North,-999,0.0,0.0,77,0.00,,,-99.99,199,WeatherLink 5.4,2013-08-15 00:30:00,
2013-08-14 20:43:00,71.3,62.6,29.82,North,-999,0.0,0.0,74,0.00,,,-99.99,127,WeatherLink 5.4,2013-08-15 00:43:00,
2013-08-14 21:03:00,68.9,62.8,29.86,North,-999,0.0,0.0,81,0.00,,,-99.99,41,WeatherLink 5.4,2013-08-15 01:03:00,
2013-08-14 23:45:00,66.9,61.9,29.87,North,-999,0.0,0.0,84,0.00,,,-99.99,0,WeatherLink 5.4,2013-08-15 03:45:00,